
Distance (Route):
Temperature : 17.9°C
Humidity : 60.7%
Pressure : 0hPa| Receiver | Date | Latitude | Longitude | Direction | Speed | Altitude | Climb | Temperature | Humidity | Pressure | Voltage | Killtimer | Uptime | BKT | XDATA |
|---|---|---|---|---|---|---|---|---|---|---|---|---|---|---|---|
| LZ4TU-5 | 2026-09-01 07:07:27 | 43.24585 | 22.78304 | 35° | 7km/h | 1699m | -13.5m/s | 17.9°C | 60.7% | 0hPa | 0V | 00:00:00 | 00:00:00 | 00:00:00 | |
| LZ4TU-5 | 2026-09-01 07:07:23 | 43.24580 | 22.78298 | 48° | 7km/h | 1755m | -13.7m/s | 17.4°C | 61.8% | 0hPa | 0V | 00:00:00 | 00:00:00 | 00:00:00 | |
| LZ4TU-5 | 2026-09-01 07:07:18 | 43.24573 | 22.78288 | 55° | 7km/h | 1825m | -14.1m/s | 16.8°C | 63.8% | 0hPa | 0V | 00:00:00 | 00:00:00 | 00:00:00 | |
| LZ4TU-5 | 2026-09-01 07:07:13 | 43.24569 | 22.78277 | 70° | 9km/h | 1897m | -14.0m/s | 16.2°C | 65.4% | 0hPa | 0V | 00:00:00 | 00:00:00 | 00:00:00 | |
| LZ4TU-5 | 2026-09-01 07:07:09 | 43.24567 | 22.78266 | 80° | 9km/h | 1954m | -13.9m/s | 15.8°C | 65.8% | 0hPa | 0V | 00:00:00 | 00:00:00 | 00:00:00 | |
| LZ4TU-5 | 2026-09-01 07:07:05 | 43.24566 | 22.78253 | 95° | 11km/h | 2012m | -14.2m/s | 15.3°C | 66.1% | 0hPa | 0V | 00:00:00 | 00:00:00 | 00:00:00 | |
| LZ4TU-5 | 2026-09-01 07:07:00 | 43.24569 | 22.78236 | 109° | 11km/h | 2083m | -13.6m/s | 14.9°C | 67.4% | 0hPa | 0V | 00:00:00 | 00:00:00 | 00:00:00 | |
| LZ4TU-5 | 2026-09-01 07:06:55 | 43.24575 | 22.78217 | 118° | 13km/h | 2153m | -13.7m/s | 14.3°C | 69.1% | 0hPa | 0V | 00:00:00 | 00:00:00 | 00:00:00 | |
| LZ4TU-5 | 2026-09-01 07:06:50 | 43.24584 | 22.78195 | 125° | 16km/h | 2223m | -13.8m/s | 13.9°C | 70.9% | 0hPa | 0V | 00:00:00 | 00:00:00 | 00:00:00 | |
| LZ4TU-5 | 2026-09-01 07:06:45 | 43.24595 | 22.78169 | 129° | 18km/h | 2288m | -13.6m/s | 13.3°C | 72.5% | 0hPa | 0V | 00:00:00 | 00:00:00 | 00:00:00 | |
| LZ4TU-5 | 2026-09-01 07:06:40 | 43.24611 | 22.78145 | 138° | 18km/h | 2351m | -14.0m/s | 12.8°C | 73.3% | 0hPa | 0V | 00:00:00 | 00:00:00 | 00:00:00 | |
| LZ4TU-5 | 2026-09-01 07:06:35 | 43.24630 | 22.78123 | 142° | 20km/h | 2422m | -13.9m/s | 12.1°C | 74.9% | 0hPa | 0V | 00:00:00 | 00:00:00 | 00:00:00 | |
| LZ4TU-5 | 2026-09-01 07:06:30 | 43.24652 | 22.78102 | 148° | 22km/h | 2493m | -13.9m/s | 11.6°C | 75.5% | 0hPa | 0V | 00:00:00 | 00:00:00 | 00:00:00 | |
| LZ4TU-5 | 2026-09-01 07:06:25 | 43.24677 | 22.78082 | 157° | 22km/h | 2564m | -14.1m/s | 11.6°C | 73.8% | 0hPa | 0V | 00:00:00 | 00:00:00 | 00:00:00 | |
| LZ4TU-5 | 2026-09-01 07:06:20 | 43.24703 | 22.78069 | 163° | 22km/h | 2636m | -14.4m/s | 11.6°C | 71.4% | 0hPa | 0V | 00:00:00 | 00:00:00 | 00:00:00 | |
| LZ4TU-5 | 2026-09-01 07:06:15 | 43.24729 | 22.78057 | 162° | 22km/h | 2706m | -14.2m/s | 11.3°C | 72.4% | 0hPa | 0V | 00:00:00 | 00:00:00 | 00:00:00 | |
| LZ4TU-5 | 2026-09-01 07:06:10 | 43.24754 | 22.78042 | 157° | 20km/h | 2772m | -14.6m/s | 10.7°C | 74.3% | 0hPa | 0V | 00:00:00 | 00:00:00 | 00:00:00 | |
| LZ4TU-5 | 2026-09-01 07:06:06 | 43.24773 | 22.78030 | 154° | 20km/h | 2830m | -14.6m/s | 10.3°C | 74.3% | 0hPa | 0V | 00:00:00 | 00:00:00 | 00:00:00 | |
| LZ4TU-5 | 2026-09-01 07:06:01 | 43.24795 | 22.78014 | 148° | 18km/h | 2905m | -14.8m/s | 9.9°C | 72.1% | 0hPa | 0V | 00:00:00 | 00:00:00 | 00:00:00 | |
| LZ4TU-5 | 2026-09-01 07:05:58 | 43.24810 | 22.77997 | 138° | 18km/h | 2966m | -15.1m/s | 9.4°C | 74.5% | 0hPa | 0V | 00:00:00 | 00:00:00 | 00:00:00 | |
| LZ4TU-5 | 2026-09-01 07:05:53 | 43.24823 | 22.77977 | 127° | 20km/h | 3028m | -15.0m/s | 9.1°C | 73.1% | 0hPa | 0V | 00:00:00 | 00:00:00 | 00:00:00 | |
| LZ4TU-5 | 2026-09-01 07:05:48 | 43.24837 | 22.77949 | 123° | 20km/h | 3104m | -14.9m/s | 8.7°C | 68.0% | 0hPa | 0V | 00:00:00 | 00:00:00 | 00:00:00 | |
| LZ4TU-5 | 2026-09-01 07:05:44 | 43.24848 | 22.77925 | 124° | 20km/h | 3165m | -14.8m/s | 8.3°C | 65.5% | 0hPa | 0V | 00:00:00 | 00:00:00 | 00:00:00 | |
| LZ4TU-5 | 2026-09-01 07:05:39 | 43.24864 | 22.77894 | 118° | 22km/h | 3241m | -14.9m/s | 7.7°C | 64.5% | 0hPa | 0V | 00:00:00 | 00:00:00 | 00:00:00 | |
| LZ4TU-5 | 2026-09-01 07:05:35 | 43.24873 | 22.77866 | 113° | 24km/h | 3300m | -14.7m/s | 7.3°C | 61.4% | 0hPa | 0V | 00:00:00 | 00:00:00 | 00:00:00 | |
| LZ4TU-5 | 2026-09-01 07:05:32 | 43.24884 | 22.77829 | 111° | 24km/h | 3366m | -14.5m/s | 6.6°C | 63.8% | 0hPa | 0V | 00:00:00 | 00:00:00 | 00:00:00 | |
| LZ4TU-5 | 2026-09-01 07:05:25 | 43.24893 | 22.77791 | 109° | 24km/h | 3441m | -14.6m/s | 5.9°C | 67.8% | 0hPa | 0V | 00:00:00 | 00:00:00 | 00:00:00 | |
| LZ4TU-5 | 2026-09-01 07:05:21 | 43.24901 | 22.77760 | 109° | 26km/h | 3501m | -14.9m/s | 5.3°C | 72.9% | 0hPa | 0V | 00:00:00 | 00:00:00 | 00:00:00 | |
| LZ4TU-5 | 2026-09-01 07:05:16 | 43.24911 | 22.77718 | 106° | 26km/h | 3577m | -14.7m/s | 4.6°C | 75.6% | 0hPa | 0V | 00:00:00 | 00:00:00 | 00:00:00 | |
| LZ4TU-5 | 2026-09-01 07:05:06 | 43.24923 | 22.77624 | 99° | 29km/h | 3723m | -15.1m/s | 3.8°C | 53.5% | 0hPa | 0V | 00:00:00 | 00:00:00 | 00:00:00 | |
| LZ4TU-5 | 2026-09-01 07:02:37 | 43.25312 | 22.75933 | 126° | 38km/h | 6011m | -16.0m/s | -9.1°C | 18.0% | 0hPa | 0V | 00:00:00 | 00:00:00 | 00:00:00 | |
| LZ4TU-5 | 2026-09-01 07:02:32 | 43.25342 | 22.75880 | 130° | 40km/h | 6093m | -16.1m/s | -9.2°C | 15.2% | 0hPa | 0V | 00:00:00 | 00:00:00 | 00:00:00 | |
| LZ4TU-5 | 2026-09-01 07:01:18 | 43.25637 | 22.74794 | 98° | 53km/h | 7324m | -17.2m/s | -17.4°C | 18.7% | 0hPa | 0V | 00:00:00 | 00:00:00 | 00:00:00 | |
| LZ4TU-5 | 2026-09-01 07:01:13 | 43.25645 | 22.74702 | 95° | 55km/h | 7413m | -16.5m/s | -18.0°C | 18.5% | 0hPa | 0V | 00:00:00 | 00:00:00 | 00:00:00 | |
| LZ4TU-5 | 2026-09-01 06:56:55 | 43.26557 | 22.66511 | 101° | 124km/h | 12141m | -20.6m/s | -53.2°C | 22.0% | 0hPa | 0V | 00:00:00 | 00:00:00 | 00:00:00 | |
| LZ4TU-5 | 2026-09-01 06:56:51 | 43.26579 | 22.66341 | 102° | 124km/h | 12226m | -20.8m/s | -54.0°C | 21.6% | 0hPa | 0V | 00:00:00 | 00:00:00 | 00:00:00 | |
| LZ4TU-5 | 2026-09-01 06:51:01 | 43.26519 | 22.60467 | 247° | 7km/h | 22833m | -48.0m/s | -52.5°C | 0.0% | 0hPa | 0V | 00:00:00 | 00:00:00 | 00:00:00 | |
| LZ4TU-5 | 2026-09-01 06:50:56 | 43.26525 | 22.60482 | 247° | 13km/h | 23081m | -48.5m/s | -51.6°C | 0% | 0hPa | 0V | 00:00:00 | 00:00:00 | 00:00:00 | |
| LZ4TU-5 | 2026-09-01 06:49:33 | 43.26539 | 22.60627 | 285° | 7km/h | 27863m | -72.1m/s | -42.9°C | 0.5% | 0hPa | 0V | 00:00:00 | 00:00:00 | 00:00:00 | |
| LZ4TU-5 | 2026-09-01 06:49:28 | 43.26530 | 22.60639 | 330° | 11km/h | 28233m | -73.7m/s | -42.3°C | 0.5% | 0hPa | 0V | 00:00:00 | 00:00:00 | 00:00:00 | |
| OM5KV | 2026-09-01 06:48:43 | 43.26497 | 22.60833 | 247° | 18km/h | 31166m | 6.6m/s | -40.8°C | 1.5% | 0hPa | 0V | 00:00:00 | 00:00:00 | 00:00:00 | |
| OM5KV | 2026-09-01 06:48:41 | 43.26501 | 22.60845 | 252° | 20km/h | 31152m | 6.1m/s | -40.5°C | 1.5% | 0hPa | 0V | 00:00:00 | 00:00:00 | 00:00:00 | |
| OM5KV | 2026-09-01 06:48:34 | 43.26515 | 22.60912 | 283° | 33km/h | 31108m | 6.6m/s | -40.9°C | 1.4% | 0hPa | 0V | 00:00:00 | 00:00:00 | 00:00:00 | |
| OM5KV | 2026-09-01 06:48:33 | 43.26514 | 22.60923 | 281° | 33km/h | 31101m | 5.7m/s | -41.2°C | 1.5% | 0hPa | 0V | 00:00:00 | 00:00:00 | 00:00:00 | |
| OM5KV | 2026-09-01 06:48:18 | 43.26532 | 22.61064 | 197° | 26km/h | 31005m | 8.4m/s | -41.0°C | 1.4% | 0hPa | 0V | 00:00:00 | 00:00:00 | 00:00:00 | |
| OM5KV | 2026-09-01 06:48:12 | 43.26555 | 22.61113 | 251° | 35km/h | 30956m | 8.3m/s | -42.2°C | 1.5% | 0hPa | 0V | 00:00:00 | 00:00:00 | 00:00:00 | |
| OM5KV | 2026-09-01 06:48:09 | 43.26551 | 22.61156 | 242° | 15km/h | 30923m | 7.2m/s | -42.2°C | 1.6% | 0hPa | 0V | 00:00:00 | 00:00:00 | 00:00:00 | |
| OM5KV | 2026-09-01 06:47:57 | 43.26586 | 22.61219 | 311° | 13km/h | 30849m | 4.6m/s | -42.3°C | 1.6% | 0hPa | 0V | 00:00:00 | 00:00:00 | 00:00:00 | |
| LZ4TU-5 | 2026-09-01 06:47:53 | 43.26588 | 22.61249 | 240° | 29km/h | 30823m | 5.4m/s | -42.0°C | 1.4% | 0hPa | 0V | 00:00:00 | 00:00:00 | 00:00:00 | |
| LZ4TU-5 | 2026-09-01 06:47:49 | 43.26609 | 22.61263 | 179° | 13km/h | 30796m | 5.3m/s | -42.2°C | 1.5% | 0hPa | 0V | 00:00:00 | 00:00:00 | 00:00:00 | |
| OM5KV | 2026-09-01 06:47:47 | 43.26611 | 22.61260 | 0° | 0km/h | 30787m | 5.8m/s | -42.6°C | 1.5% | 0hPa | 0V | 00:00:00 | 00:00:00 | 00:00:00 | |
| OM5KV | 2026-09-01 06:47:38 | 43.26611 | 22.61301 | 147° | 24km/h | 30733m | 6.5m/s | -43.1°C | 1.6% | 0hPa | 0V | 00:00:00 | 00:00:00 | 00:00:00 | |
| OM5KV | 2026-09-01 06:47:28 | 43.26622 | 22.61330 | 190° | 15km/h | 30657m | 5.8m/s | -42.9°C | 1.5% | 0hPa | 0V | 00:00:00 | 00:00:00 | 00:00:00 | |
| OM5KV | 2026-09-01 06:47:27 | 43.26622 | 22.61330 | 190° | 15km/h | 30657m | 5.8m/s | -42.9°C | 1.5% | 0hPa | 0V | 00:00:00 | 00:00:00 | 00:00:00 | |
| OM5KV | 2026-09-01 06:47:22 | 43.26613 | 22.61323 | 292° | 18km/h | 30620m | 5.8m/s | -43.5°C | 1.7% | 0hPa | 0V | 00:00:00 | 00:00:00 | 00:00:00 | |
| OM5KV | 2026-09-01 06:47:15 | 43.26623 | 22.61338 | 68° | 18km/h | 30579m | 6.0m/s | -43.8°C | 1.8% | 0hPa | 0V | 00:00:00 | 00:00:00 | 00:00:00 | |
| OM5KV | 2026-09-01 06:47:14 | 43.26619 | 22.61334 | 359° | 22km/h | 30570m | 9.4m/s | -43.9°C | 1.8% | 0hPa | 0V | 00:00:00 | 00:00:00 | 00:00:00 | |
| OM5KV | 2026-09-01 06:47:09 | 43.26595 | 22.61360 | 268° | 22km/h | 30530m | 6.2m/s | -43.7°C | 1.8% | 0hPa | 0V | 00:00:00 | 00:00:00 | 00:00:00 | |
| OM5KV | 2026-09-01 06:47:07 | 43.26599 | 22.61371 | 233° | 18km/h | 30516m | 7.2m/s | -43.7°C | 1.8% | 0hPa | 0V | 00:00:00 | 00:00:00 | 00:00:00 | |
| OM5KV | 2026-09-01 06:46:55 | 43.26570 | 22.61435 | 237° | 35km/h | 30434m | 5.2m/s | -43.4°C | 1.7% | 0hPa | 0V | 00:00:00 | 00:00:00 | 00:00:00 | |
| OM5KV | 2026-09-01 06:46:50 | 43.26563 | 22.61424 | 358° | 26km/h | 30391m | 6.6m/s | -42.8°C | 1.6% | 0hPa | 0V | 00:00:00 | 00:00:00 | 00:00:00 | |
| OM5KV | 2026-09-01 06:46:48 | 43.26556 | 22.61429 | 308° | 29km/h | 30384m | 7.7m/s | -42.9°C | 1.7% | 0hPa | 0V | 00:00:00 | 00:00:00 | 00:00:00 | |
| OM5KV | 2026-09-01 06:46:38 | 43.26568 | 22.61481 | 325° | 20km/h | 30309m | 7.2m/s | -42.8°C | 1.7% | 0hPa | 0V | 00:00:00 | 00:00:00 | 00:00:00 | |
| OM5KV | 2026-09-01 06:46:34 | 43.26560 | 22.61508 | 258° | 26km/h | 30280m | 8.4m/s | -43.0°C | 1.8% | 0hPa | 0V | 00:00:00 | 00:00:00 | 00:00:00 | |
| OM5KV | 2026-09-01 06:46:33 | 43.26563 | 22.61517 | 241° | 29km/h | 30272m | 8.7m/s | -43.0°C | 1.7% | 0hPa | 0V | 00:00:00 | 00:00:00 | 00:00:00 | |
| OM5KV | 2026-09-01 06:46:27 | 43.26585 | 22.61532 | 80° | 5km/h | 30228m | 7.6m/s | -42.9°C | 1.8% | 0hPa | 0V | 00:00:00 | 00:00:00 | 00:00:00 | |
| OM5KV | 2026-09-01 06:46:14 | 43.26626 | 22.61569 | 264° | 11km/h | 30136m | 5.3m/s | -43.0°C | 1.8% | 0hPa | 0V | 00:00:00 | 00:00:00 | 00:00:00 | |
| OM5KV | 2026-09-01 06:45:50 | 43.26752 | 22.61588 | 137° | 16km/h | 29969m | 7.3m/s | -42.8°C | 1.8% | 0hPa | 0V | 00:00:00 | 00:00:00 | 00:00:00 | |
| OM5KV | 2026-09-01 06:45:49 | 43.26755 | 22.61586 | 195° | 11km/h | 29961m | 8.5m/s | -43.0°C | 1.8% | 0hPa | 0V | 00:00:00 | 00:00:00 | 00:00:00 | |
| OM5KV | 2026-09-01 06:45:44 | 43.26777 | 22.61603 | 129° | 18km/h | 29909m | 8.4m/s | -43.1°C | 1.9% | 0hPa | 0V | 00:00:00 | 00:00:00 | 00:00:00 | |
| OM5KV | 2026-09-01 06:45:29 | 43.26781 | 22.61600 | 92° | 4km/h | 29814m | 7.8m/s | -42.9°C | 1.9% | 0hPa | 0V | 00:00:00 | 00:00:00 | 00:00:00 | |
| OM5KV | 2026-09-01 06:45:24 | 43.26777 | 22.61620 | 279° | 11km/h | 29763m | 9.1m/s | -42.8°C | 1.8% | 0hPa | 0V | 00:00:00 | 00:00:00 | 00:00:00 | |
| LZ4TU-5 | 2026-09-01 06:44:26 | 43.26691 | 22.61708 | 256° | 24km/h | 29374m | 7.3m/s | -42.3°C | 1.6% | 0hPa | 0V | 00:00:00 | 00:00:00 | 00:00:00 | |
| LZ4TU-5 | 2026-09-01 06:44:21 | 43.26680 | 22.61734 | 17° | 16km/h | 29338m | 7.5m/s | -42.3°C | 1.6% | 0hPa | 0V | 00:00:00 | 00:00:00 | 00:00:00 | |
| LZ4TU-5 | 2026-09-01 06:42:44 | 43.26371 | 22.61899 | 7° | 9km/h | 28698m | 4.8m/s | -43.2°C | 1.5% | 0hPa | 0V | 00:00:00 | 00:00:00 | 00:00:00 | |
| LZ4TU-5 | 2026-09-01 06:41:11 | 43.26103 | 22.62030 | 259° | 11km/h | 28075m | 6.5m/s | -43.5°C | 1.1% | 0hPa | 0V | 00:00:00 | 00:00:00 | 00:00:00 | |
| LZ4TU-5 | 2026-09-01 06:41:06 | 43.26104 | 22.62053 | 243° | 18km/h | 28043m | 6.8m/s | -44.0°C | 1.2% | 0hPa | 0V | 00:00:00 | 00:00:00 | 00:00:00 | |
| LZ4TU-5 | 2026-09-01 06:39:24 | 43.26044 | 22.62241 | 132° | 29km/h | 27372m | 5.1m/s | -44.8°C | 1.3% | 0hPa | 0V | 00:00:00 | 00:00:00 | 00:00:00 | |
| LZ4TU-5 | 2026-09-01 06:39:19 | 43.26040 | 22.62237 | 307° | 20km/h | 27336m | 8.3m/s | -44.7°C | 1.3% | 0hPa | 0V | 00:00:00 | 00:00:00 | 00:00:00 | |
| LZ4TU-5 | 2026-09-01 06:37:19 | 43.25762 | 22.62288 | 332° | 11km/h | 26546m | 5.2m/s | -47.1°C | 1.0% | 0hPa | 0V | 00:00:00 | 00:00:00 | 00:00:00 | |
| LZ4TU-5 | 2026-09-01 06:37:14 | 43.25748 | 22.62313 | 301° | 35km/h | 26520m | 6.1m/s | -47.5°C | 1.0% | 0hPa | 0V | 00:00:00 | 00:00:00 | 00:00:00 | |
| LZ4TU-5 | 2026-09-01 06:35:43 | 43.25683 | 22.62836 | 214° | 16km/h | 25947m | 6.2m/s | -48.8°C | 1.2% | 0hPa | 0V | 00:00:00 | 00:00:00 | 00:00:00 | |
| LZ4TU-5 | 2026-09-01 06:35:38 | 43.25703 | 22.62844 | 256° | 18km/h | 25916m | 6.4m/s | -48.9°C | 1.2% | 0hPa | 0V | 00:00:00 | 00:00:00 | 00:00:00 | |
| LZ4TU-5 | 2026-09-01 06:34:05 | 43.25935 | 22.62935 | 189° | 11km/h | 25349m | 6.3m/s | -48.4°C | 0.8% | 0hPa | 0V | 00:00:00 | 00:00:00 | 00:00:00 | |
| LZ4TU-5 | 2026-09-01 06:34:01 | 43.25933 | 22.62940 | 314° | 20km/h | 25323m | 7.3m/s | -48.3°C | 0% | 0hPa | 0V | 00:00:00 | 00:00:00 | 00:00:00 | |
| LZ4TU-5 | 2026-09-01 06:32:21 | 43.26115 | 22.63293 | 213° | 16km/h | 24714m | 7.3m/s | -50.3°C | 0.6% | 0hPa | 0V | 00:00:00 | 00:00:00 | 00:00:00 | |
| LZ4TU-5 | 2026-09-01 06:32:17 | 43.26137 | 22.63314 | 186° | 33km/h | 24689m | 6.6m/s | -50.3°C | 0.7% | 0hPa | 0V | 00:00:00 | 00:00:00 | 00:00:00 | |
| LZ4TU-5 | 2026-09-01 06:30:47 | 43.26469 | 22.63253 | 128° | 9km/h | 24136m | 6.3m/s | -52.0°C | 0.3% | 0hPa | 0V | 00:00:00 | 00:00:00 | 00:00:00 | |
| LZ4TU-5 | 2026-09-01 06:30:42 | 43.26462 | 22.63267 | 316° | 13km/h | 24103m | 7.3m/s | -52.1°C | 0.4% | 0hPa | 0V | 00:00:00 | 00:00:00 | 00:00:00 | |
| LZ4TU-5 | 2026-09-01 06:29:10 | 43.26257 | 22.63516 | 293° | 7km/h | 23555m | 6.1m/s | -52.3°C | 0.6% | 0hPa | 0V | 00:00:00 | 00:00:00 | 00:00:00 | |
| LZ4TU-5 | 2026-09-01 06:29:05 | 43.26252 | 22.63560 | 292° | 29km/h | 23524m | 4.6m/s | -52.0°C | 0.4% | 0hPa | 0V | 00:00:00 | 00:00:00 | 00:00:00 | |
| LZ4TU-5 | 2026-09-01 06:27:31 | 43.26193 | 22.63848 | 354° | 5km/h | 22967m | 5.3m/s | -54.4°C | 0.5% | 0hPa | 0V | 00:00:00 | 00:00:00 | 00:00:00 | |
| LZ4TU-5 | 2026-09-01 06:27:26 | 43.26190 | 22.63848 | 226° | 5km/h | 22939m | 3.8m/s | -54.1°C | 0% | 0hPa | 0V | 00:00:00 | 00:00:00 | 00:00:00 | |
| LZ4TU-5 | 2026-09-01 06:25:55 | 43.26223 | 22.63908 | 263° | 11km/h | 22396m | 7.1m/s | -54.8°C | 0.6% | 0hPa | 0V | 00:00:00 | 00:00:00 | 00:00:00 | |
| LZ4TU-5 | 2026-09-01 06:25:50 | 43.26228 | 22.63936 | 254° | 15km/h | 22369m | 3.9m/s | -55.1°C | 0.7% | 0hPa | 0V | 00:00:00 | 00:00:00 | 00:00:00 | |
| LZ4TU-5 | 2026-09-01 06:24:11 | 43.26306 | 22.63729 | 56° | 11km/h | 21798m | 6.4m/s | -54.5°C | 0.6% | 0hPa | 0V | 00:00:00 | 00:00:00 | 00:00:00 | |
| LZ4TU-5 | 2026-09-01 06:24:07 | 43.26303 | 22.63718 | 45° | 9km/h | 21777m | 4.4m/s | -54.4°C | 0.6% | 0hPa | 0V | 00:00:00 | 00:00:00 | 00:00:00 | |
| LZ4TU-5 | 2026-09-01 06:22:36 | 43.26036 | 22.63585 | 354° | 20km/h | 21267m | 5.2m/s | -54.3°C | 0.7% | 0hPa | 0V | 00:00:00 | 00:00:00 | 00:00:00 | |
| LZ4TU-5 | 2026-09-01 06:22:33 | 43.26022 | 22.63598 | 304° | 22km/h | 21244m | 6.2m/s | -54.4°C | 0.8% | 0hPa | 0V | 00:00:00 | 00:00:00 | 00:00:00 | |
| LZ4TU-5 | 2026-09-01 06:21:02 | 43.25793 | 22.63888 | 234° | 11km/h | 20748m | 5.0m/s | -54.3°C | 0.5% | 0hPa | 0V | 00:00:00 | 00:00:00 | 00:00:00 | |
| LZ4TU-5 | 2026-09-01 06:20:58 | 43.25788 | 22.63894 | 349° | 13km/h | 20726m | 6.0m/s | -54.7°C | 0% | 0hPa | 0V | 00:00:00 | 00:00:00 | 00:00:00 | |
| LZ4TU-5 | 2026-09-01 06:19:30 | 43.25690 | 22.63923 | 102° | 9km/h | 20229m | 5.1m/s | -55.6°C | 0.7% | 0hPa | 0V | 00:00:00 | 00:00:00 | 00:00:00 | |
| LZ4TU-5 | 2026-09-01 06:19:26 | 43.25678 | 22.63908 | 42° | 22km/h | 20205m | 5.7m/s | -55.2°C | 0.6% | 0hPa | 0V | 00:00:00 | 00:00:00 | 00:00:00 | |
| LZ4TU-5 | 2026-09-01 06:17:59 | 43.25359 | 22.63618 | 89° | 15km/h | 19702m | 6.0m/s | -54.7°C | 1.0% | 0hPa | 0V | 00:00:00 | 00:00:00 | 00:00:00 | |
| LZ4TU-5 | 2026-09-01 06:17:54 | 43.25370 | 22.63619 | 186° | 11km/h | 19674m | 4.7m/s | -54.9°C | 0.9% | 0hPa | 0V | 00:00:00 | 00:00:00 | 00:00:00 | |
| LZ4TU-5 | 2026-09-01 06:16:24 | 43.25504 | 22.62935 | 62° | 29km/h | 19158m | 4.9m/s | -55.3°C | 0.3% | 0hPa | 0V | 00:00:00 | 00:00:00 | 00:00:00 | |
| LZ4TU-5 | 2026-09-01 06:16:20 | 43.25492 | 22.62902 | 70° | 29km/h | 19137m | 4.9m/s | -55.6°C | 0.3% | 0hPa | 0V | 00:00:00 | 00:00:00 | 00:00:00 | |
| LZ4TU-5 | 2026-09-01 06:14:52 | 43.25130 | 22.62277 | 50° | 18km/h | 18664m | 4.8m/s | -58.7°C | 0.9% | 0hPa | 0V | 00:00:00 | 00:00:00 | 00:00:00 | |
| LZ4TU-5 | 2026-09-01 06:14:47 | 43.25110 | 22.62247 | 47° | 24km/h | 18637m | 6.5m/s | -58.9°C | 0% | 0hPa | 0V | 00:00:00 | 00:00:00 | 00:00:00 | |
| LZ4TU-5 | 2026-09-01 06:13:15 | 43.24849 | 22.61545 | 25° | 7km/h | 18143m | 5.2m/s | -57.8°C | 1.4% | 0hPa | 0V | 00:00:00 | 00:00:00 | 00:00:00 | |
| LZ4TU-5 | 2026-09-01 06:13:10 | 43.24849 | 22.61532 | 128° | 18km/h | 18117m | 5.4m/s | -57.6°C | 1.4% | 0hPa | 0V | 00:00:00 | 00:00:00 | 00:00:00 | |
| LZ4TU-5 | 2026-09-01 06:11:41 | 43.24810 | 22.60718 | 88° | 38km/h | 17661m | 5.1m/s | -57.4°C | 1.5% | 0hPa | 0V | 00:00:00 | 00:00:00 | 00:00:00 | |
| LZ4TU-5 | 2026-09-01 06:11:37 | 43.24813 | 22.60662 | 97° | 44km/h | 17639m | 5.9m/s | -57.3°C | 1.6% | 0hPa | 0V | 00:00:00 | 00:00:00 | 00:00:00 | |
| LZ4TU-5 | 2026-09-01 06:10:02 | 43.24954 | 22.59131 | 104° | 55km/h | 17127m | 6.3m/s | -58.8°C | 2.1% | 0hPa | 0V | 00:00:00 | 00:00:00 | 00:00:00 | |
| LZ4TU-5 | 2026-09-01 06:09:57 | 43.24968 | 22.59031 | 98° | 66km/h | 17098m | 6.6m/s | -58.8°C | 2.3% | 0hPa | 0V | 00:00:00 | 00:00:00 | 00:00:00 | |
| LZ4TU-5 | 2026-09-01 06:08:29 | 43.24730 | 22.57294 | 60° | 62km/h | 16644m | 5.2m/s | -59.4°C | 3.1% | 0hPa | 0V | 00:00:00 | 00:00:00 | 00:00:00 | |
| LZ4TU-5 | 2026-09-01 06:08:24 | 43.24693 | 22.57211 | 60° | 51km/h | 16621m | 4.6m/s | -59.5°C | 0% | 0hPa | 0V | 00:00:00 | 00:00:00 | 00:00:00 | |
| LZ4TU-5 | 2026-09-01 06:06:44 | 43.24418 | 22.55821 | 77° | 47km/h | 16130m | 5.7m/s | -61.2°C | 4.6% | 0hPa | 0V | 00:00:00 | 00:00:00 | 00:00:00 | |
| LZ4TU-5 | 2026-09-01 06:05:07 | 43.24269 | 22.54854 | 116° | 20km/h | 15608m | 5.9m/s | -59.5°C | 7.3% | 0hPa | 0V | 00:00:00 | 00:00:00 | 00:00:00 | |
| LZ4TU-5 | 2026-09-01 06:05:03 | 43.24274 | 22.54819 | 111° | 33km/h | 15587m | 6.2m/s | -59.3°C | 7.4% | 0hPa | 0V | 00:00:00 | 00:00:00 | 00:00:00 | |
| LZ4TU-5 | 2026-09-01 06:03:29 | 43.24653 | 22.53107 | 100° | 82km/h | 15105m | 4.7m/s | -62.4°C | 11.1% | 0hPa | 0V | 00:00:00 | 00:00:00 | 00:00:00 | |
| LZ4TU-5 | 2026-09-01 06:03:24 | 43.24660 | 22.52980 | 89° | 69km/h | 15081m | 4.0m/s | -62.4°C | 11.3% | 0hPa | 0V | 00:00:00 | 00:00:00 | 00:00:00 | |
| LZ4TU-5 | 2026-09-01 06:01:56 | 43.24679 | 22.50912 | 94° | 89km/h | 14639m | 4.3m/s | -63.2°C | 12.1% | 0hPa | 0V | 00:00:00 | 00:00:00 | 00:00:00 | |
| LZ4TU-5 | 2026-09-01 06:01:51 | 43.24678 | 22.50761 | 87° | 84km/h | 14614m | 5.0m/s | -63.2°C | 0% | 0hPa | 0V | 00:00:00 | 00:00:00 | 00:00:00 | |
| LZ4TU-5 | 2026-09-01 06:00:15 | 43.24527 | 22.48167 | 97° | 71km/h | 14123m | 3.2m/s | -61.3°C | 12.9% | 0hPa | 0V | 00:00:00 | 00:00:00 | 00:00:00 | |
| LZ4TU-5 | 2026-09-01 06:00:10 | 43.24536 | 22.48030 | 95° | 78km/h | 14097m | 4.6m/s | -61.3°C | 13.0% | 0hPa | 0V | 00:00:00 | 00:00:00 | 00:00:00 | |
| LZ4TU-5 | 2026-09-01 05:58:43 | 43.24594 | 22.45577 | 98° | 95km/h | 13677m | 4.3m/s | -59.7°C | 14.6% | 0hPa | 0V | 00:00:00 | 00:00:00 | 00:00:00 | |
| LZ4TU-5 | 2026-09-01 05:58:38 | 43.24603 | 22.45419 | 99° | 88km/h | 13654m | 5.2m/s | -59.7°C | 14.8% | 0hPa | 0V | 00:00:00 | 00:00:00 | 00:00:00 | |
| LZ4TU-5 | 2026-09-01 05:57:12 | 43.24938 | 22.42668 | 100° | 102km/h | 13236m | 4.2m/s | -59.3°C | 18.0% | 0hPa | 0V | 00:00:00 | 00:00:00 | 00:00:00 | |
| LZ4TU-5 | 2026-09-01 05:57:06 | 43.24960 | 22.42500 | 103° | 91km/h | 13212m | 3.8m/s | -59.1°C | 18.2% | 0hPa | 0V | 00:00:00 | 00:00:00 | 00:00:00 | |
| LZ4TU-5 | 2026-09-01 05:55:39 | 43.25331 | 22.39452 | 104° | 108km/h | 12789m | 4.8m/s | -58.3°C | 23.5% | 0hPa | 0V | 00:00:00 | 00:00:00 | 00:00:00 | |
| LZ4TU-5 | 2026-09-01 05:55:34 | 43.25360 | 22.39267 | 102° | 110km/h | 12763m | 4.3m/s | -58.4°C | 0% | 0hPa | 0V | 00:00:00 | 00:00:00 | 00:00:00 | |
| LZ4TU-5 | 2026-09-01 05:54:06 | 43.26021 | 22.35719 | 107° | 126km/h | 12337m | 5.2m/s | -55.3°C | 20.7% | 0hPa | 0V | 00:00:00 | 00:00:00 | 00:00:00 | |
| LZ4TU-5 | 2026-09-01 05:54:01 | 43.26054 | 22.35512 | 103° | 122km/h | 12311m | 5.2m/s | -55.1°C | 20.6% | 0hPa | 0V | 00:00:00 | 00:00:00 | 00:00:00 | |
| LZ4TU-5 | 2026-09-01 05:52:31 | 43.26584 | 22.31723 | 97° | 128km/h | 11880m | 5.3m/s | -51.8°C | 19.5% | 0hPa | 0V | 00:00:00 | 00:00:00 | 00:00:00 | |
| LZ4TU-5 | 2026-09-01 05:52:26 | 43.26610 | 22.31509 | 104° | 122km/h | 11858m | 4.9m/s | -51.6°C | 19.4% | 0hPa | 0V | 00:00:00 | 00:00:00 | 00:00:00 | |
| LZ4TU-5 | 2026-09-01 05:50:53 | 43.27048 | 22.27649 | 99° | 117km/h | 11446m | 4.0m/s | -48.0°C | 17.5% | 0hPa | 0V | 00:00:00 | 00:00:00 | 00:00:00 | |
| LZ4TU-5 | 2026-09-01 05:50:48 | 43.27071 | 22.27451 | 100° | 119km/h | 11425m | 3.2m/s | -47.9°C | 17.5% | 0hPa | 0V | 00:00:00 | 00:00:00 | 00:00:00 | |
| LZ4TU-5 | 2026-09-01 05:49:18 | 43.27464 | 22.23756 | 96° | 117km/h | 11053m | 4.3m/s | -45.3°C | 17.7% | 0hPa | 0V | 00:00:00 | 00:00:00 | 00:00:00 | |
| LZ4TU-5 | 2026-09-01 05:49:14 | 43.27481 | 22.23593 | 102° | 126km/h | 11036m | 4.8m/s | -45.2°C | 0% | 0hPa | 0V | 00:00:00 | 00:00:00 | 00:00:00 | |
| LZ4TU-5 | 2026-09-01 05:47:48 | 43.27891 | 22.20099 | 99° | 122km/h | 10631m | 5.3m/s | -42.2°C | 15.6% | 0hPa | 0V | 00:00:00 | 00:00:00 | 00:00:00 | |
| LZ4TU-5 | 2026-09-01 05:47:43 | 43.27930 | 22.19909 | 105° | 110km/h | 10606m | 4.3m/s | -42.0°C | 15.8% | 0hPa | 0V | 00:00:00 | 00:00:00 | 00:00:00 | |
| LZ4TU-5 | 2026-09-01 05:46:16 | 43.28206 | 22.16609 | 97° | 93km/h | 10144m | 7.3m/s | -38.8°C | 16.1% | 0hPa | 0V | 00:00:00 | 00:00:00 | 00:00:00 | |
| LZ4TU-5 | 2026-09-01 05:46:11 | 43.28232 | 22.16440 | 99° | 102km/h | 10112m | 6.3m/s | -38.5°C | 15.9% | 0hPa | 0V | 00:00:00 | 00:00:00 | 00:00:00 | |
| LZ4TU-5 | 2026-09-01 05:44:42 | 43.28446 | 22.13266 | 91° | 93km/h | 9674m | 4.3m/s | -35.1°C | 0% | 0hPa | 0V | 00:00:00 | 00:00:00 | 00:00:00 | |
| LZ4TU-5 | 2026-09-01 05:44:37 | 43.28460 | 22.13111 | 105° | 108km/h | 9650m | 5.5m/s | -34.9°C | 11.5% | 0hPa | 0V | 00:00:00 | 00:00:00 | 00:00:00 | |
| LZ4TU-5 | 2026-09-01 05:42:55 | 43.28732 | 22.09773 | 92° | 89km/h | 9078m | 5.1m/s | -30.4°C | 9.9% | 0hPa | 0V | 00:00:00 | 00:00:00 | 00:00:00 | |
| LZ4TU-5 | 2026-09-01 05:42:50 | 43.28745 | 22.09621 | 101° | 93km/h | 9052m | 4.4m/s | -30.3°C | 0% | 0hPa | 0V | 00:00:00 | 00:00:00 | 00:00:00 | |
| LZ4TU-5 | 2026-09-01 05:41:23 | 43.28953 | 22.07119 | 92° | 68km/h | 8626m | 5.2m/s | -27.6°C | 13.2% | 0hPa | 0V | 00:00:00 | 00:00:00 | 00:00:00 | |
| LZ4TU-5 | 2026-09-01 05:41:18 | 43.28971 | 22.06995 | 106° | 75km/h | 8604m | 3.8m/s | -27.5°C | 13.7% | 0hPa | 0V | 00:00:00 | 00:00:00 | 00:00:00 | |
| LZ4TU-5 | 2026-09-01 05:39:50 | 43.29198 | 22.04910 | 97° | 60km/h | 8162m | 4.7m/s | -24.5°C | 18.1% | 0hPa | 0V | 00:00:00 | 00:00:00 | 00:00:00 | |
| LZ4TU-5 | 2026-09-01 05:39:46 | 43.29208 | 22.04840 | 105° | 47km/h | 8145m | 3.1m/s | -24.6°C | 19.1% | 0hPa | 0V | 00:00:00 | 00:00:00 | 00:00:00 | |
| LZ4TU-5 | 2026-09-01 05:38:18 | 43.29458 | 22.02897 | 108° | 80km/h | 7710m | 5.4m/s | -21.0°C | 18.8% | 0hPa | 0V | 00:00:00 | 00:00:00 | 00:00:00 | |
| LZ4TU-5 | 2026-09-01 05:38:14 | 43.29464 | 22.02790 | 89° | 71km/h | 7689m | 5.1m/s | -20.8°C | 18.9% | 0hPa | 0V | 00:00:00 | 00:00:00 | 00:00:00 | |
| LZ4TU-5 | 2026-09-01 05:36:40 | 43.29901 | 22.01041 | 97° | 60km/h | 7187m | 5.2m/s | -16.7°C | 14.0% | 0hPa | 0V | 00:00:00 | 00:00:00 | 00:00:00 | |
| LZ4TU-5 | 2026-09-01 05:36:35 | 43.29921 | 22.00933 | 107° | 57km/h | 7162m | 6.5m/s | -16.5°C | 13.5% | 0hPa | 0V | 00:00:00 | 00:00:00 | 00:00:00 | |
| LZ4TU-5 | 2026-09-01 05:35:03 | 43.30373 | 21.99146 | 98° | 66km/h | 6689m | 4.3m/s | -12.8°C | 12.9% | 0hPa | 0V | 00:00:00 | 00:00:00 | 00:00:00 | |
| LZ4TU-5 | 2026-09-01 05:34:58 | 43.30377 | 21.99067 | 109° | 42km/h | 6667m | 4.7m/s | -12.7°C | 12.8% | 0hPa | 0V | 00:00:00 | 00:00:00 | 00:00:00 | |
| LZ4TU-5 | 2026-09-01 05:33:46 | 43.30741 | 21.97690 | 114° | 33km/h | 6296m | 5.4m/s | -10.8°C | 12.6% | 0hPa | 0V | 00:00:00 | 00:00:00 | 00:00:00 | |
| LZ4TU-5 | 2026-09-01 05:33:42 | 43.30752 | 21.97629 | 98° | 58km/h | 6276m | 5.3m/s | -10.9°C | 14.4% | 0hPa | 0V | 00:00:00 | 00:00:00 | 00:00:00 | |
| LZ4TU-5 | 2026-09-01 05:32:30 | 43.31231 | 21.96558 | 141° | 53km/h | 5884m | 5.3m/s | -8.9°C | 25.1% | 0hPa | 0V | 00:00:00 | 00:00:00 | 00:00:00 | |
| LZ4TU-5 | 2026-09-01 05:32:25 | 43.31251 | 21.96482 | 103° | 58km/h | 5852m | 3.8m/s | -8.6°C | 24.4% | 0hPa | 0V | 00:00:00 | 00:00:00 | 00:00:00 | |
| LZ4TU-5 | 2026-09-01 05:31:11 | 43.31646 | 21.95532 | 146° | 44km/h | 5460m | 4.7m/s | -5.8°C | 21.2% | 0hPa | 0V | 00:00:00 | 00:00:00 | 00:00:00 | |
| LZ4TU-5 | 2026-09-01 05:31:07 | 43.31666 | 21.95480 | 112° | 55km/h | 5435m | 7.7m/s | -5.7°C | 21.7% | 0hPa | 0V | 00:00:00 | 00:00:00 | 00:00:00 | |
| LZ4TU-5 | 2026-09-01 05:29:54 | 43.32029 | 21.94654 | 117° | 16km/h | 5009m | 7.5m/s | -4.5°C | 50.0% | 0hPa | 0V | 00:00:00 | 00:00:00 | 00:00:00 | |
| LZ4TU-5 | 2026-09-01 05:29:49 | 43.32036 | 21.94620 | 89° | 40km/h | 4981m | 6.4m/s | -4.4°C | 0% | 0hPa | 0V | 00:00:00 | 00:00:00 | 00:00:00 | |
| LZ4TU-5 | 2026-09-01 05:28:17 | 43.32082 | 21.93744 | 121° | 11km/h | 4512m | 3.6m/s | -0.7°C | 36.3% | 0hPa | 0V | 00:00:00 | 00:00:00 | 00:00:00 | |
| LZ4TU-5 | 2026-09-01 05:28:12 | 43.32095 | 21.93684 | 80° | 47km/h | 4485m | 5.8m/s | -0.7°C | 45.8% | 0hPa | 0V | 00:00:00 | 00:00:00 | 00:00:00 | |
| LZ4TU-5 | 2026-09-01 05:26:52 | 43.32053 | 21.92942 | 157° | 22km/h | 4089m | 3.4m/s | 1.5°C | 48.8% | 0hPa | 0V | 00:00:00 | 00:00:00 | 00:00:00 |